Latest Weather Observations for Snowtown

IDS60801

Issued at 1:31 pm CDT Monday 22 December 2014 (issued every 30 minutes, with the page automatically refreshed every 10 minutes)

About weather observations | Map of weather stations | Latest weather observations for SA | Other Formats
Station Details ID: 021133 Name: RAYVILLE PARK Lat: -33.77 Lon: 138.22 Height: 109.1 m
Data from the previous 72 hours. | See also: Recent months at Snowtown
Date/Time
CDT
Temp
°C
App
Temp
°C
Dew
Point
Rel
Hum
%
Delta-T
°C
Wind Press
QNH
hPa
Press
MSL
hPa
Rain
since 9 am
mm
Dir
 
Spd
km/h
Gust
km/h
Spd
kts
Gust
kts
22/01:30pm 23.6 24.9 17.1 67 4.0 SSE 6 11 3 6 1008.8 1008.4 0.0
22/01:00pm 22.4 21.7 18.2 77 2.6 SE 19 30 10 16 1008.0 1007.6 0.0
22/12:48pm 22.2 22.2 17.1 73 3.1 SSE 13 24 7 13 1008.4 1008.0 0.0
22/12:30pm 23.0 24.0 16.8 68 3.8 NW 7 11 4 6 1010.5 1010.1 0.0
22/12:00pm 22.4 20.9 17.8 75 2.9 W 22 30 12 16 1010.5 1010.1 0.0
22/11:30am 23.7 21.3 16.5 64 4.4 NW 24 32 13 17 1010.3 1009.9 0.0
22/11:00am 24.8 21.3 14.6 53 6.1 NW 26 37 14 20 1009.7 1009.3 0.0
22/10:30am 27.9 23.3 9.7 32 10.2 WNW 24 33 13 18 1009.3 1008.9 0.0
22/10:00am 27.0 22.5 10.2 35 9.4 NW 24 39 13 21 1009.1 1008.7 0.0
22/09:30am 24.8 24.6 13.7 50 6.6 SSE 7 9 4 5 1008.0 1007.6 0.0
22/09:00am 23.5 24.9 14.5 57 5.4 CALM 0 0 0 0 1007.6 1007.2 0.0
22/08:30am 22.8 23.3 15.6 64 4.4 ESE 7 11 4 6 1007.1 1006.7 0.0
22/08:00am 21.7 21.9 15.8 69 3.6 SSE 9 15 5 8 1006.9 1006.5 0.0
22/07:30am 19.6 19.5 16.1 80 2.1 WSW 11 15 6 8 1007.6 1007.2 0.0
22/07:00am 18.8 19.3 15.1 79 2.2 SW 6 7 3 4 1006.5 1006.1 0.0
22/06:30am 18.1 18.4 15.0 82 1.8 SW 7 9 4 5 1006.4 1006.0 0.0
22/06:00am 17.3 16.9 14.2 82 1.8 SW 9 9 5 5 1006.2 1005.8 0.0
22/05:30am 17.2 18.4 13.7 80 2.0 CALM 0 0 0 0 1006.1 1005.7 0.0
22/05:00am 17.6 18.7 14.7 83 1.7 W 2 6 1 3 1006.3 1005.9 0.0
22/04:30am 18.1 18.1 15.2 83 1.7 SW 9 9 5 5 1006.3 1005.9 0.0
22/04:00am 18.5 18.3 15.6 83 1.7 WSW 11 13 6 7 1006.4 1006.0 0.0
22/03:30am 18.8 19.4 15.7 82 1.8 SW 7 9 4 5 1006.7 1006.3 0.0
22/03:00am 19.0 19.1 15.5 80 2.1 WSW 9 13 5 7 1007.2 1006.8 0.0
22/02:30am 19.3 19.3 16.2 82 1.9 SSW 11 13 6 7 1007.6 1007.2 0.0
22/02:00am 19.5 19.1 16.2 81 2.0 SSW 13 17 7 9 1008.4 1008.0 0.0
22/01:30am 19.5 19.0 15.8 79 2.2 S 13 17 7 9 1009.1 1008.7 0.0
22/01:00am 20.5 19.4 16.3 77 2.5 SSW 17 22 9 12 1009.3 1008.9 0.0
22/12:30am 21.3 18.5 15.4 69 3.5 S 24 30 13 16 1009.5 1009.1 0.0
22/12:00am 23.1 20.1 14.7 59 5.0 S 24 33 13 18 1009.7 1009.3 0.0
 
Date/Time
CDT
Temp
°C
App
Temp
°C
Dew
Point
Rel
Hum
%
Delta-T
°C
Wind Press
QNH
hPa
Press
MSL
hPa
Rain
since 9 am
mm
Dir
 
Spd
km/h
Gust
km/h
Spd
kts
Gust
kts
21/11:30pm 25.7 22.1 11.8 42 8.0 SW 22 30 12 16 1009.5 1009.1 0.0
21/11:00pm 25.9 21.0 11.3 40 8.3 NW 28 39 15 21 1009.4 1009.0 0.0
21/10:30pm 26.8 22.9 10.9 37 9.0 NW 22 35 12 19 1009.1 1008.7 0.0
21/10:00pm 28.1 24.1 8.4 29 10.8 W 19 22 10 12 1009.0 1008.6 0.0
21/09:30pm 28.3 23.2 9.1 30 10.7 W 26 37 14 20 1008.9 1008.5 0.0
21/09:00pm 29.2 26.0 5.3 22 12.5 ENE 11 24 6 13 1008.7 1008.3 0.0
21/08:30pm 29.6 25.8 -0.7 14 14.3 ESE 9 11 5 6 1008.4 1008.0 0.0
21/08:00pm 31.4 26.9 -0.3 13 15.3 SE 13 15 7 8 1008.4 1008.0 0.0
21/07:30pm 32.8 28.3 -0.3 12 16.1 NW 13 22 7 12 1008.7 1008.3 0.0
21/07:00pm 33.1 28.4 1.0 13 16.0 WSW 15 35 8 19 1008.3 1007.9 0.0
21/06:30pm 30.9 28.2 10.3 28 11.8 SSW 15 20 8 11 1007.9 1007.5 0.0
21/06:00pm 34.7 31.2 -1.4 10 17.5 NNE 7 9 4 5 1007.9 1007.5 0.0
21/05:30pm 34.8 30.9 -1.3 10 17.5 NW 9 15 5 8 1007.8 1007.4 0.0
21/05:00pm 35.5 30.6 -0.8 10 17.8 NW 15 22 8 12 1008.2 1007.8 0.0
21/04:30pm 35.2 29.8 -1.0 10 17.7 NW 17 24 9 13 1008.4 1008.0 0.0
21/04:00pm 36.3 31.6 -1.6 9 18.5 WNW 13 24 7 13 1008.5 1008.1 0.0
21/03:30pm 36.8 32.2 -1.2 9 18.7 SW 13 24 7 13 1008.8 1008.4 0.0
21/03:00pm 36.8 32.2 -1.2 9 18.7 WNW 13 22 7 12 1009.1 1008.7 0.0
21/02:30pm 37.2 32.6 -0.9 9 18.9 W 13 20 7 11 1009.4 1009.0 0.0
21/02:00pm 36.7 30.6 0.1 10 18.4 NW 22 35 12 19 1010.0 1009.6 0.0
21/01:30pm 36.4 28.9 1.2 11 18.0 NW 30 39 16 21 1010.4 1010.0 0.0
21/01:00pm 36.4 28.1 -0.1 10 18.2 NNW 33 44 18 24 1010.9 1010.6 0.0
21/12:30pm 35.7 28.1 0.7 11 17.6 NW 30 44 16 24 1011.2 1010.9 0.0
21/12:00pm 34.6 27.1 1.1 12 16.9 NW 30 39 16 21 1011.3 1011.0 0.0
21/11:30am 34.3 27.9 0.8 12 16.8 NNW 24 35 13 19 1011.3 1011.0 0.0
21/11:00am 33.9 27.4 0.5 12 16.6 N 24 39 13 21 1011.4 1011.1 0.0
21/10:30am 33.2 25.7 1.1 13 16.0 N 30 41 16 22 1011.6 1011.3 0.0
21/10:00am 33.0 25.1 0.9 13 16.0 N 32 43 17 23 1011.7 1011.4 0.0
21/09:30am 31.0 22.8 0.4 14 14.9 N 33 44 18 24 1012.0 1011.7 0.0
21/09:00am 29.4 21.6 1.8 17 13.6 N 32 43 17 23 1012.1 1011.8 0.0
21/08:30am 28.2 23.0 2.4 19 12.8 NNE 19 28 10 15 1012.0 1011.7 0.0
21/08:00am 25.5 21.1 2.9 23 11.1 NNE 15 19 8 10 1011.8 1011.5 0.0
21/07:30am 22.8 19.1 4.3 30 9.1 N 13 15 7 8 1011.6 1011.3 0.0
21/07:00am 19.4 16.3 5.5 40 6.9 N 11 13 6 7 1011.4 1011.1 0.0
21/06:30am 16.4 12.5 5.4 48 5.3 NNW 15 15 8 8 1011.3 1011.0 0.0
21/06:00am 15.1 11.3 5.6 53 4.6 N 15 15 8 8 1011.2 1010.9 0.0
21/05:30am 15.4 11.3 6.1 54 4.5 N 17 17 9 9 1011.1 1010.8 0.0
21/05:00am 14.3 11.3 6.2 58 3.9 N 11 13 6 7 1011.1 1010.8 0.0
21/04:30am 14.8 12.0 7.1 60 3.8 NW 11 15 6 8 1011.0 1010.7 0.0
21/04:00am 15.3 12.6 7.3 59 4.0 NW 11 15 6 8 1011.2 1010.9 0.0
21/03:30am 14.2 12.0 7.9 66 3.1 WNW 9 11 5 6 1011.2 1010.9 0.0
21/03:00am 12.9 11.6 7.8 71 2.5 SW 4 7 2 4 1011.6 1011.3 0.0
21/02:30am 12.6 10.8 7.3 70 2.6 SW 6 7 3 4 1011.9 1011.6 0.0
21/02:00am 13.2 12.6 7.6 69 2.8 CALM 0 0 0 0 1012.3 1012.0 0.0
21/01:30am 13.8 13.5 8.8 72 2.5 CALM 0 2 0 1 1012.3 1012.0 0.0
21/01:00am 15.4 14.2 10.4 72 2.6 SW 7 9 4 5 1012.4 1012.1 0.0
21/12:30am 17.0 15.9 10.8 67 3.3 SW 7 11 4 6 1012.4 1012.1 0.0
21/12:00am 17.6 15.7 11.8 69 3.2 SW 13 15 7 8 1013.0 1012.6 0.0
 
Date/Time
CDT
Temp
°C
App
Temp
°C
Dew
Point
Rel
Hum
%
Delta-T
°C
Wind Press
QNH
hPa
Press
MSL
hPa
Rain
since 9 am
mm
Dir
 
Spd
km/h
Gust
km/h
Spd
kts
Gust
kts
20/11:30pm 17.9 16.1 13.4 75 2.6 WSW 15 17 8 9 1013.3 1012.9 0.0
20/11:00pm 17.7 15.9 13.2 75 2.5 SW 15 19 8 10 1013.5 1013.1 0.0
20/10:30pm 18.6 17.1 14.3 76 2.5 WSW 15 19 8 10 1013.6 1013.2 0.0
20/10:00pm 18.8 16.8 13.9 73 2.8 WSW 17 20 9 11 1013.7 1013.3 0.0
20/09:30pm 19.8 18.2 12.8 64 4.0 SW 13 17 7 9 1013.6 1013.2 0.0
20/09:00pm 20.9 18.7 12.1 57 5.0 SW 15 19 8 10 1013.7 1013.3 0.0
20/08:30pm 22.8 19.8 11.8 50 6.2 SSW 19 24 10 13 1013.5 1013.1 0.0
20/08:00pm 24.6 20.9 11.5 44 7.4 SSW 22 30 12 16 1013.4 1013.0 0.0
20/07:30pm 27.2 23.2 9.1 32 10.0 SSW 20 26 11 14 1013.1 1012.7 0.0
20/07:00pm 28.7 24.0 7.9 27 11.3 SSW 22 32 12 17 1012.5 1012.2 0.0
20/06:30pm 29.8 24.7 7.7 25 12.1 S 24 32 13 17 1012.2 1011.9 0.0
20/06:00pm 31.6 27.3 5.2 19 14.0 S 17 22 9 12 1012.2 1011.9 0.0
20/05:30pm 31.9 27.7 3.8 17 14.6 WNW 15 24 8 13 1012.3 1012.0 0.0
20/05:00pm 32.7 28.8 3.6 16 15.1 W 13 19 7 10 1012.6 1012.3 0.0
20/04:30pm 33.1 29.5 3.0 15 15.5 WNW 11 24 6 13 1013.0 1012.6 0.0
20/04:00pm 32.9 28.4 1.9 14 15.7 W 15 26 8 14 1013.5 1013.1 0.0
20/03:30pm 32.5 28.3 1.6 14 15.5 NW 13 22 7 12 1013.8 1013.4 0.0
20/03:00pm 32.3 27.7 1.4 14 15.4 W 15 26 8 14 1014.3 1013.9 0.0
20/02:30pm 30.9 26.3 1.3 15 14.6 WSW 15 24 8 13 1014.8 1014.4 0.0
20/02:00pm 31.2 25.6 1.5 15 14.7 W 20 28 11 15 1015.1 1014.7 0.0
20/01:30pm 30.5 26.7 1.9 16 14.2 WNW 11 32 6 17 1015.6 1015.2 0.0
20/01:00pm 29.7 26.1 2.9 18 13.5 W 11 20 6 11 1016.0 1015.6 0.0
20/12:30pm 29.6 25.9 4.3 20 13.0 WNW 13 20 7 11 1016.5 1016.1 0.0
20/12:00pm 28.4 24.5 3.3 20 12.6 NW 13 24 7 13 1017.0 1016.6 0.0
20/11:30am 26.7 23.7 3.9 23 11.4 NW 9 20 5 11 1017.4 1017.0 0.0
20/11:00am 25.9 22.2 4.4 25 10.8 N 13 24 7 13 1017.7 1017.3 0.0
20/10:30am 24.9 21.0 5.2 28 10.0 NNE 15 22 8 12 1018.0 1017.6 0.0
20/10:00am 23.2 19.2 5.1 31 9.1 NNE 15 22 8 12 1018.4 1018.0 0.0
20/09:30am 21.7 18.7 7.5 40 7.4 NNE 13 20 7 11 1018.8 1018.5 0.0
20/09:00am 19.9 17.3 7.9 46 6.2 NNE 11 17 6 9 1019.2 1018.9 0.0
20/08:30am 18.0 15.5 8.0 52 5.1 NNE 11 17 6 9 1019.2 1018.9 0.0
20/08:00am 16.4 14.0 8.6 60 4.0 NNE 11 13 6 7 1019.3 1019.0 0.0
20/07:30am 15.2 13.6 8.9 66 3.2 NE 7 9 4 5 1019.1 1018.8 0.0
20/07:00am 12.1 11.9 9.1 82 1.5 CALM 0 0 0 0 1018.9 1018.6 0.0
20/06:30am 9.5 7.7 7.1 85 1.1 NNE 6 7 3 4 1018.7 1018.4 0.0
20/06:00am 10.3 8.6 7.4 82 1.4 NNE 6 7 3 4 1018.5 1018.1 0.0
20/05:30am 11.0 8.2 8.4 84 1.3 NNE 13 13 7 7 1018.5 1018.1 0.0
20/05:00am 9.7 7.0 7.5 86 1.1 NNW 11 13 6 7 1018.3 1017.9 0.0
20/04:30am 8.9 6.1 7.0 88 0.9 NW 11 13 6 7 1018.3 1017.9 0.0
20/04:00am 9.1 7.0 6.7 85 1.1 WSW 7 9 4 5 1018.1 1017.7 0.0
20/03:30am 10.5 8.4 8.4 87 1.0 WSW 9 11 5 6 1018.2 1017.8 0.0
20/03:00am 10.2 8.0 8.0 86 1.1 SW 9 11 5 6 1018.4 1018.0 0.0
20/02:30am 10.4 7.8 7.8 84 1.3 SW 11 13 6 7 1018.6 1018.3 0.0
20/02:00am 11.1 8.7 8.5 84 1.3 SW 11 13 6 7 1018.8 1018.5 0.0
20/01:30am 11.6 9.7 9.0 84 1.3 SSW 9 11 5 6 1019.1 1018.8 0.0
20/01:00am 12.1 10.2 9.1 82 1.5 SSW 9 11 5 6 1019.4 1019.1 0.0
20/12:30am 12.4 10.5 8.9 79 1.8 SSW 9 9 5 5 1019.7 1019.4 0.0
20/12:00am 14.6 13.1 10.4 76 2.2 S 9 13 5 7 1019.9 1019.6 0.0
 
Date/Time
CDT
Temp
°C
App
Temp
°C
Dew
Point
Rel
Hum
%
Delta-T
°C
Wind Press
QNH
hPa
Press
MSL
hPa
Rain
since 9 am
mm
Dir
 
Spd
km/h
Gust
km/h
Spd
kts
Gust
kts
19/11:30pm 15.2 12.9 10.6 74 2.4 SSW 13 15 7 8 1020.0 1019.7 0.0
19/11:00pm 15.6 13.3 10.4 71 2.8 S 13 19 7 10 1020.2 1019.9 0.0
19/10:30pm 15.6 13.0 9.5 67 3.2 S 13 17 7 9 1020.3 1020.0 0.0
19/10:00pm 16.4 13.4 9.3 63 3.7 S 15 22 8 12 1020.2 1019.9 0.0
19/09:30pm 17.2 13.4 9.1 59 4.2 S 19 22 10 12 1020.0 1019.7 0.0
19/09:00pm 18.0 14.1 8.6 54 4.9 S 19 22 10 12 1019.9 1019.6 0.0
19/08:30pm 18.9 14.0 8.3 50 5.5 S 24 32 13 17 1019.9 1019.6 0.0
19/08:00pm 20.3 15.0 6.6 41 6.9 S 24 32 13 17 1019.5 1019.2 0.0
19/07:30pm 21.5 16.2 6.6 38 7.6 S 24 35 13 19 1019.3 1019.0 0.0
19/07:00pm 22.0 16.5 7.4 39 7.6 S 26 35 14 19 1018.9 1018.6 0.0
19/06:30pm 23.2 17.6 7.3 36 8.3 S 26 35 14 19 1018.7 1018.4 0.0
19/06:00pm 23.4 17.9 7.5 36 8.3 S 26 35 14 19 1018.4 1018.0 0.0
19/05:30pm 24.6 19.9 5.9 30 9.6 SSE 20 30 11 16 1018.4 1018.0 0.0
19/05:00pm 25.1 20.1 4.8 27 10.3 S 20 32 11 17 1018.4 1018.0 0.0
19/04:30pm 25.8 22.0 3.7 24 11.0 S 13 22 7 12 1018.4 1018.0 0.0
19/04:00pm 25.9 21.7 3.8 24 11.0 SSW 15 24 8 13 1018.7 1018.4 0.0
19/03:30pm 25.8 21.2 3.7 24 11.0 SSE 17 32 9 17 1019.0 1018.7 0.0
19/03:00pm 24.7 19.9 4.5 27 10.1 SSW 19 33 10 18 1019.3 1019.0 0.0
19/02:30pm 25.3 21.1 5.5 28 10.1 S 17 28 9 15 1019.4 1019.1 0.0
19/02:00pm 24.6 20.0 5.4 29 9.8 SSW 19 30 10 16 1019.3 1019.0 0.0

Other Formats:

Comma delimited format used in spreadsheet applications
http://www.bom.gov.au/fwo/IDS60801/IDS60801.95670.axf

JavaScript Object Notation format (JSON) in row-major order
http://www.bom.gov.au/fwo/IDS60801/IDS60801.95670.json